sensor_id;sensor_type;location;lat;lon;timestamp;pressure;altitude;pressure_sealevel;temperature;humidity
11712;BME280;5912;51.034;6.984;2022-10-22T00:01:33;99895.88;;;13.51;100.00
11712;BME280;5912;51.034;6.984;2022-10-22T00:03:59;99910.75;;;13.57;100.00
11712;BME280;5912;51.034;6.984;2022-10-22T00:06:24;99906.75;;;13.55;100.00
11712;BME280;5912;51.034;6.984;2022-10-22T00:08:50;99881.97;;;13.39;100.00
11712;BME280;5912;51.034;6.984;2022-10-22T00:11:17;99909.97;;;13.57;100.00
11712;BME280;5912;51.034;6.984;2022-10-22T00:13:44;99880.00;;;13.34;100.00
11712;BME280;5912;51.034;6.984;2022-10-22T00:16:09;99915.25;;;13.57;100.00
11712;BME280;5912;51.034;6.984;2022-10-22T00:18:35;99908.84;;;13.53;100.00
11712;BME280;5912;51.034;6.984;2022-10-22T00:21:01;99918.44;;;13.59;100.00
11712;BME280;5912;51.034;6.984;2022-10-22T00:23:26;99877.63;;;13.33;100.00
11712;BME280;5912;51.034;6.984;2022-10-22T00:25:52;99913.16;;;13.59;100.00
11712;BME280;5912;51.034;6.984;2022-10-22T00:28:18;99918.44;;;13.59;100.00
11712;BME280;5912;51.034;6.984;2022-10-22T00:30:43;99918.66;;;13.57;100.00
11712;BME280;5912;51.034;6.984;2022-10-22T00:33:09;99917.31;;;13.55;100.00
11712;BME280;5912;51.034;6.984;2022-10-22T00:35:34;99921.16;;;13.64;100.00
11712;BME280;5912;51.034;6.984;2022-10-22T00:38:01;99926.44;;;13.64;100.00
11712;BME280;5912;51.034;6.984;2022-10-22T00:40:26;99920.06;;;13.60;100.00
11712;BME280;5912;51.034;6.984;2022-10-22T00:42:51;99917.94;;;13.62;100.00
11712;BME280;5912;51.034;6.984;2022-10-22T00:45:23;99919.88;;;13.66;100.00
11712;BME280;5912;51.034;6.984;2022-10-22T00:51:02;99919.16;;;13.71;100.00
11712;BME280;5912;51.034;6.984;2022-10-22T00:53:31;99917.53;;;13.70;100.00
11712;BME280;5912;51.034;6.984;2022-10-22T00:55:58;99902.09;;;13.62;100.00
11712;BME280;5912;51.034;6.984;2022-10-22T00:58:27;99911.25;;;13.71;100.00
11712;BME280;5912;51.034;6.984;2022-10-22T01:00:54;99908.84;;;13.69;100.00
11712;BME280;5912;51.034;6.984;2022-10-22T01:03:20;99891.88;;;13.49;100.00
11712;BME280;5912;51.034;6.984;2022-10-22T01:05:52;99895.38;;;13.54;100.00
11712;BME280;5912;51.034;6.984;2022-10-22T01:08:45;99907.94;;;13.64;100.00
11712;BME280;5912;51.034;6.984;2022-10-22T01:11:26;99907.13;;;13.63;100.00
11712;BME280;5912;51.034;6.984;2022-10-22T01:14:20;99916.44;;;13.66;100.00
11712;BME280;5912;51.034;6.984;2022-10-22T01:17:05;99912.50;;;13.68;100.00
11712;BME280;5912;51.034;6.984;2022-10-22T01:22:35;99893.47;;;13.66;100.00
11712;BME280;5912;51.034;6.984;2022-10-22T01:30:21;99902.66;;;13.64;100.00
11712;BME280;5912;51.034;6.984;2022-10-22T01:32:50;99863.09;;;13.47;100.00
11712;BME280;5912;51.034;6.984;2022-10-22T01:35:21;99858.75;;;13.41;100.00
11712;BME280;5912;51.034;6.984;2022-10-22T01:37:51;99885.16;;;13.58;100.00
11712;BME280;5912;51.034;6.984;2022-10-22T01:40:18;99893.31;;;13.56;100.00
11712;BME280;5912;51.034;6.984;2022-10-22T01:43:06;99885.16;;;13.58;100.00
11712;BME280;5912;51.034;6.984;2022-10-22T01:45:38;99892.84;;;13.59;100.00
11712;BME280;5912;51.034;6.984;2022-10-22T01:48:43;99889.94;;;13.61;100.00
11712;BME280;5912;51.034;6.984;2022-10-22T01:51:29;99879.88;;;13.58;100.00
11712;BME280;5912;51.034;6.984;2022-10-22T02:00:00;99892.19;;;13.69;100.00
11712;BME280;5912;51.034;6.984;2022-10-22T02:02:43;99888.00;;;13.73;100.00
11712;BME280;5912;51.034;6.984;2022-10-22T02:05:25;99898.81;;;13.71;100.00
11712;BME280;5912;51.034;6.984;2022-10-22T02:08:19;99891.13;;;13.70;100.00
11712;BME280;5912;51.034;6.984;2022-10-22T02:10:46;99887.72;;;13.69;100.00
11712;BME280;5912;51.034;6.984;2022-10-22T02:13:37;99900.69;;;13.71;100.00
11712;BME280;5912;51.034;6.984;2022-10-22T02:16:07;99899.88;;;13.70;100.00
11712;BME280;5912;51.034;6.984;2022-10-22T02:18:35;99896.97;;;13.72;100.00
11712;BME280;5912;51.034;6.984;2022-10-22T02:21:03;99875.06;;;13.55;100.00
11712;BME280;5912;51.034;6.984;2022-10-22T02:23:28;99900.44;;;13.72;100.00
11712;BME280;5912;51.034;6.984;2022-10-22T02:26:31;99902.03;;;13.73;100.00
11712;BME280;5912;51.034;6.984;2022-10-22T02:29:19;99907.06;;;13.75;100.00
11712;BME280;5912;51.034;6.984;2022-10-22T02:31:46;99898.13;;;13.76;100.00
11712;BME280;5912;51.034;6.984;2022-10-22T02:34:18;99899.47;;;13.78;100.00
11712;BME280;5912;51.034;6.984;2022-10-22T02:36:46;99900.19;;;13.74;100.00
11712;BME280;5912;51.034;6.984;2022-10-22T02:39:13;99902.84;;;13.74;100.00
11712;BME280;5912;51.034;6.984;2022-10-22T02:41:39;99892.66;;;13.66;100.00
11712;BME280;5912;51.034;6.984;2022-10-22T02:44:08;99902.75;;;13.69;100.00
11712;BME280;5912;51.034;6.984;2022-10-22T02:46:34;99903.56;;;13.69;100.00
11712;BME280;5912;51.034;6.984;2022-10-22T02:48:59;99899.22;;;13.63;100.00
11712;BME280;5912;51.034;6.984;2022-10-22T02:51:24;99907.56;;;13.72;100.00
11712;BME280;5912;51.034;6.984;2022-10-22T02:53:50;99908.03;;;13.69;100.00
11712;BME280;5912;51.034;6.984;2022-10-22T02:56:15;99903.25;;;13.66;100.00
11712;BME280;5912;51.034;6.984;2022-10-22T02:58:40;99903.25;;;13.66;100.00
11712;BME280;5912;51.034;6.984;2022-10-22T03:01:06;99904.75;;;13.62;100.00
11712;BME280;5912;51.034;6.984;2022-10-22T03:03:31;99908.91;;;13.58;100.00
11712;BME280;5912;51.034;6.984;2022-10-22T03:05:56;99903.63;;;13.58;100.00
11712;BME280;5912;51.034;6.984;2022-10-22T03:08:22;99907.78;;;13.54;100.00
11712;BME280;5912;51.034;6.984;2022-10-22T03:10:47;99906.91;;;13.48;100.00
11712;BME280;5912;51.034;6.984;2022-10-22T03:13:12;99878.34;;;13.28;100.00
11712;BME280;5912;51.034;6.984;2022-10-22T03:15:37;99902.75;;;13.35;100.00
11712;BME280;5912;51.034;6.984;2022-10-22T03:18:03;99902.91;;;13.29;100.00
11712;BME280;5912;51.034;6.984;2022-10-22T03:20:28;99912.66;;;13.28;100.00
11712;BME280;5912;51.034;6.984;2022-10-22T03:22:54;99907.38;;;13.28;100.00
11712;BME280;5912;51.034;6.984;2022-10-22T03:25:23;99916.34;;;13.27;100.00
11712;BME280;5912;51.034;6.984;2022-10-22T03:27:50;99912.56;;;13.23;100.00
11712;BME280;5912;51.034;6.984;2022-10-22T03:30:16;99895.31;;;13.04;100.00
11712;BME280;5912;51.034;6.984;2022-10-22T03:32:42;99922.16;;;13.13;100.00
11712;BME280;5912;51.034;6.984;2022-10-22T03:35:07;99913.56;;;13.06;100.00
11712;BME280;5912;51.034;6.984;2022-10-22T03:37:33;99920.94;;;13.04;100.00
11712;BME280;5912;51.034;6.984;2022-10-22T03:40:00;99925.41;;;13.03;100.00
11712;BME280;5912;51.034;6.984;2022-10-22T03:42:26;99922.19;;;13.01;100.00
11712;BME280;5912;51.034;6.984;2022-10-22T03:44:51;99923.00;;;13.02;100.00
11712;BME280;5912;51.034;6.984;2022-10-22T03:47:17;99918.78;;;13.01;100.00
11712;BME280;5912;51.034;6.984;2022-10-22T03:49:42;99927.91;;;12.98;100.00
11712;BME280;5912;51.034;6.984;2022-10-22T03:52:10;99933.56;;;13.02;100.00
11712;BME280;5912;51.034;6.984;2022-10-22T03:54:36;99931.03;;;12.95;100.00
11712;BME280;5912;51.034;6.984;2022-10-22T03:57:03;99875.19;;;12.59;100.00
11712;BME280;5912;51.034;6.984;2022-10-22T03:59:34;99922.78;;;12.92;100.00
11712;BME280;5912;51.034;6.984;2022-10-22T04:01:59;99928.38;;;12.95;100.00
11712;BME280;5912;51.034;6.984;2022-10-22T04:04:24;99929.97;;;12.96;100.00
11712;BME280;5912;51.034;6.984;2022-10-22T04:06:50;99946.97;;;13.00;100.00
11712;BME280;5912;51.034;6.984;2022-10-22T04:09:15;99942.16;;;12.97;100.00
11712;BME280;5912;51.034;6.984;2022-10-22T04:11:40;99925.25;;;12.82;100.00
11712;BME280;5912;51.034;6.984;2022-10-22T04:14:05;99948.22;;;12.98;100.00
11712;BME280;5912;51.034;6.984;2022-10-22T04:16:31;99945.34;;;12.99;100.00
11712;BME280;5912;51.034;6.984;2022-10-22T04:18:57;99920.75;;;12.82;100.00
11712;BME280;5912;51.034;6.984;2022-10-22T04:21:23;99955.47;;;13.02;100.00
11712;BME280;5912;51.034;6.984;2022-10-22T04:23:51;99957.75;;;13.10;100.00
11712;BME280;5912;51.034;6.984;2022-10-22T04:26:17;99955.97;;;13.16;100.00
11712;BME280;5912;51.034;6.984;2022-10-22T04:28:44;99958.13;;;13.19;100.00
11712;BME280;5912;51.034;6.984;2022-10-22T04:31:12;99960.28;;;13.05;100.00
11712;BME280;5912;51.034;6.984;2022-10-22T04:33:39;99957.06;;;13.03;100.00
11712;BME280;5912;51.034;6.984;2022-10-22T04:36:13;99968.91;;;13.01;100.00
11712;BME280;5912;51.034;6.984;2022-10-22T04:38:39;99949.84;;;12.87;100.00
11712;BME280;5912;51.034;6.984;2022-10-22T04:41:16;99937.16;;;12.73;100.00
11712;BME280;5912;51.034;6.984;2022-10-22T04:43:42;99931.78;;;12.68;100.00
11712;BME280;5912;51.034;6.984;2022-10-22T04:46:09;99970.38;;;12.85;100.00
11712;BME280;5912;51.034;6.984;2022-10-22T04:48:36;99971.19;;;12.86;100.00
11712;BME280;5912;51.034;6.984;2022-10-22T04:51:02;99980.69;;;12.98;100.00
11712;BME280;5912;51.034;6.984;2022-10-22T04:53:28;99976.34;;;12.92;100.00
11712;BME280;5912;51.034;6.984;2022-10-22T04:56:11;99987.16;;;12.79;100.00
11712;BME280;5912;51.034;6.984;2022-10-22T04:58:37;99958.69;;;12.53;100.00
11712;BME280;5912;51.034;6.984;2022-10-22T05:01:15;99984.88;;;12.71;100.00
11712;BME280;5912;51.034;6.984;2022-10-22T05:03:41;99990.50;;;12.75;100.00
11712;BME280;5912;51.034;6.984;2022-10-22T05:06:07;99985.66;;;12.83;100.00
11712;BME280;5912;51.034;6.984;2022-10-22T05:08:33;99988.31;;;12.83;100.00
11712;BME280;5912;51.034;6.984;2022-10-22T05:10:58;99997.81;;;12.84;100.00
11712;BME280;5912;51.034;6.984;2022-10-22T05:13:24;99971.13;;;12.69;100.00
11712;BME280;5912;51.034;6.984;2022-10-22T05:15:49;99990.47;;;12.86;100.00
11712;BME280;5912;51.034;6.984;2022-10-22T05:18:14;99970.97;;;12.87;100.00
11712;BME280;5912;51.034;6.984;2022-10-22T05:20:40;99991.34;;;12.92;100.00
11712;BME280;5912;51.034;6.984;2022-10-22T05:23:06;99997.09;;;12.89;100.00
11712;BME280;5912;51.034;6.984;2022-10-22T05:25:36;99999.50;;;12.90;100.00
11712;BME280;5912;51.034;6.984;2022-10-22T05:28:02;100001.13;;;12.91;100.00
11712;BME280;5912;51.034;6.984;2022-10-22T05:30:27;100005.50;;;12.86;100.00
11712;BME280;5912;51.034;6.984;2022-10-22T05:32:52;100010.66;;;12.81;100.00
11712;BME280;5912;51.034;6.984;2022-10-22T05:35:18;100015.28;;;12.74;100.00
11712;BME280;5912;51.034;6.984;2022-10-22T05:37:43;100014.34;;;12.68;100.00
11712;BME280;5912;51.034;6.984;2022-10-22T05:40:09;100023.66;;;12.71;100.00
11712;BME280;5912;51.034;6.984;2022-10-22T05:42:34;100011.72;;;12.68;100.00
11712;BME280;5912;51.034;6.984;2022-10-22T05:44:59;100023.72;;;12.76;100.00
11712;BME280;5912;51.034;6.984;2022-10-22T05:47:25;100023.25;;;12.79;100.00
11712;BME280;5912;51.034;6.984;2022-10-22T05:49:50;100027.19;;;12.76;100.00
11712;BME280;5912;51.034;6.984;2022-10-22T05:52:16;100023.72;;;12.76;100.00
11712;BME280;5912;51.034;6.984;2022-10-22T05:54:41;100034.84;;;12.78;100.00
11712;BME280;5912;51.034;6.984;2022-10-22T05:57:06;100039.09;;;12.79;100.00
11712;BME280;5912;51.034;6.984;2022-10-22T05:59:32;100043.59;;;12.78;100.00
11712;BME280;5912;51.034;6.984;2022-10-22T06:01:57;100045.16;;;12.79;100.00
11712;BME280;5912;51.034;6.984;2022-10-22T06:04:22;100041.72;;;12.79;100.00
11712;BME280;5912;51.034;6.984;2022-10-22T06:06:49;100049.16;;;12.93;100.00
11712;BME280;5912;51.034;6.984;2022-10-22T06:09:19;100055.38;;;12.87;100.00
11712;BME280;5912;51.034;6.984;2022-10-22T06:11:47;100059.59;;;12.88;100.00
11712;BME280;5912;51.034;6.984;2022-10-22T06:14:12;100055.94;;;12.89;100.00
11712;BME280;5912;51.034;6.984;2022-10-22T06:16:39;100055.72;;;12.91;100.00
11712;BME280;5912;51.034;6.984;2022-10-22T06:19:10;100059.16;;;12.91;100.00
11712;BME280;5912;51.034;6.984;2022-10-22T06:21:35;100065.69;;;12.89;100.00
11712;BME280;5912;51.034;6.984;2022-10-22T06:24:01;100064.88;;;12.88;100.00
11712;BME280;5912;51.034;6.984;2022-10-22T06:26:26;100085.53;;;12.91;100.00
11712;BME280;5912;51.034;6.984;2022-10-22T06:28:53;100067.91;;;12.80;100.00
11712;BME280;5912;51.034;6.984;2022-10-22T06:31:19;100092.41;;;12.92;100.00
11712;BME280;5912;51.034;6.984;2022-10-22T06:33:45;100092.19;;;12.94;100.00
11712;BME280;5912;51.034;6.984;2022-10-22T06:36:13;100090.91;;;12.96;100.00
11712;BME280;5912;51.034;6.984;2022-10-22T06:38:39;100107.06;;;13.00;100.00
11712;BME280;5912;51.034;6.984;2022-10-22T06:41:10;100071.19;;;12.76;100.00
11712;BME280;5912;51.034;6.984;2022-10-22T06:43:36;100106.41;;;13.04;100.00
11712;BME280;5912;51.034;6.984;2022-10-22T06:46:03;100093.09;;;12.99;100.00
11712;BME280;5912;51.034;6.984;2022-10-22T06:48:29;100107.09;;;13.11;100.00
11712;BME280;5912;51.034;6.984;2022-10-22T06:50:55;100096.66;;;13.05;100.00
11712;BME280;5912;51.034;6.984;2022-10-22T06:53:20;100105.59;;;13.15;100.00
11712;BME280;5912;51.034;6.984;2022-10-22T06:55:46;100117.06;;;13.21;100.00
11712;BME280;5912;51.034;6.984;2022-10-22T06:58:11;100116.25;;;13.20;100.00
11712;BME280;5912;51.034;6.984;2022-10-22T07:00:36;100119.13;;;13.19;100.00
11712;BME280;5912;51.034;6.984;2022-10-22T07:03:01;100128.09;;;13.18;100.00
11712;BME280;5912;51.034;6.984;2022-10-22T07:05:27;100128.31;;;13.16;100.00
11712;BME280;5912;51.034;6.984;2022-10-22T07:07:52;100136.25;;;13.16;100.00
11712;BME280;5912;51.034;6.984;2022-10-22T07:10:17;100137.38;;;13.20;100.00
11712;BME280;5912;51.034;6.984;2022-10-22T07:12:43;100135.31;;;13.22;100.00
11712;BME280;5912;51.034;6.984;2022-10-22T07:15:08;100137.13;;;13.22;100.00
11712;BME280;5912;51.034;6.984;2022-10-22T07:17:33;100139.31;;;13.25;100.00
11712;BME280;5912;51.034;6.984;2022-10-22T07:19:59;100150.56;;;13.32;100.00
11712;BME280;5912;51.034;6.984;2022-10-22T07:22:24;100146.28;;;13.43;100.00
11712;BME280;5912;51.034;6.984;2022-10-22T07:24:49;100144.19;;;13.56;100.00
11712;BME280;5912;51.034;6.984;2022-10-22T07:27:15;100147.28;;;13.65;100.00
11712;BME280;5912;51.034;6.984;2022-10-22T07:29:40;100149.06;;;13.76;100.00
11712;BME280;5912;51.034;6.984;2022-10-22T07:32:05;100122.06;;;13.74;100.00
11712;BME280;5912;51.034;6.984;2022-10-22T07:34:31;100156.97;;;14.04;100.00
11712;BME280;5912;51.034;6.984;2022-10-22T07:36:56;100155.53;;;14.13;100.00
11712;BME280;5912;51.034;6.984;2022-10-22T07:39:22;100162.06;;;14.22;100.00
11712;BME280;5912;51.034;6.984;2022-10-22T07:41:49;100172.69;;;14.38;100.00
11712;BME280;5912;51.034;6.984;2022-10-22T07:44:15;100174.78;;;14.53;100.00
11712;BME280;5912;51.034;6.984;2022-10-22T07:46:40;100169.81;;;14.73;100.00
11712;BME280;5912;51.034;6.984;2022-10-22T07:49:05;100181.81;;;14.97;100.00
11712;BME280;5912;51.034;6.984;2022-10-22T07:51:31;100189.75;;;15.14;100.00
11712;BME280;5912;51.034;6.984;2022-10-22T07:53:56;100192.75;;;15.22;100.00
11712;BME280;5912;51.034;6.984;2022-10-22T07:56:21;100198.19;;;15.32;100.00
11712;BME280;5912;51.034;6.984;2022-10-22T07:58:46;100198.94;;;15.44;100.00
11712;BME280;5912;51.034;6.984;2022-10-22T08:01:12;100196.28;;;15.66;100.00
11712;BME280;5912;51.034;6.984;2022-10-22T08:03:37;100210.66;;;15.91;100.00
11712;BME280;5912;51.034;6.984;2022-10-22T08:06:02;100217.09;;;16.22;100.00
11712;BME280;5912;51.034;6.984;2022-10-22T08:08:28;100217.81;;;16.44;100.00
11712;BME280;5912;51.034;6.984;2022-10-22T08:10:55;100222.56;;;16.69;100.00
11712;BME280;5912;51.034;6.984;2022-10-22T08:13:21;100220.56;;;16.81;100.00
11712;BME280;5912;51.034;6.984;2022-10-22T08:15:47;100228.31;;;16.87;100.00
11712;BME280;5912;51.034;6.984;2022-10-22T08:18:12;100204.28;;;16.72;100.00
11712;BME280;5912;51.034;6.984;2022-10-22T08:20:38;100220.47;;;16.71;99.75
11712;BME280;5912;51.034;6.984;2022-10-22T08:23:04;100233.78;;;16.76;100.00
11712;BME280;5912;51.034;6.984;2022-10-22T08:25:29;100238.28;;;16.75;100.00
11712;BME280;5912;51.034;6.984;2022-10-22T08:27:55;100240.69;;;16.77;98.06
11712;BME280;5912;51.034;6.984;2022-10-22T08:30:20;100248.38;;;16.73;97.06
11712;BME280;5912;51.034;6.984;2022-10-22T08:32:46;100228.22;;;16.46;95.46
11712;BME280;5912;51.034;6.984;2022-10-22T08:35:11;100244.88;;;16.41;96.23
11712;BME280;5912;51.034;6.984;2022-10-22T08:37:37;100249.25;;;16.30;96.79
11712;BME280;5912;51.034;6.984;2022-10-22T08:40:03;100257.69;;;16.27;96.89
11712;BME280;5912;51.034;6.984;2022-10-22T08:48:03;100264.25;;;16.20;94.37
11712;BME280;5912;51.034;6.984;2022-10-22T08:50:45;100258.88;;;16.37;92.39
11712;BME280;5912;51.034;6.984;2022-10-22T08:53:15;100267.53;;;16.27;93.08
11712;BME280;5912;51.034;6.984;2022-10-22T08:55:41;100267.78;;;16.25;93.86
11712;BME280;5912;51.034;6.984;2022-10-22T08:58:30;100275.25;;;16.28;93.81
11712;BME280;5912;51.034;6.984;2022-10-22T09:01:04;100282.13;;;16.29;93.36
11712;BME280;5912;51.034;6.984;2022-10-22T09:03:56;100280.63;;;16.39;92.45
11712;BME280;5912;51.034;6.984;2022-10-22T09:06:26;100236.44;;;16.22;93.12
11712;BME280;5912;51.034;6.984;2022-10-22T09:08:53;100280.38;;;16.62;91.11
11712;BME280;5912;51.034;6.984;2022-10-22T09:13:45;100290.72;;;16.90;91.05
11712;BME280;5912;51.034;6.984;2022-10-22T09:18:48;100295.91;;;17.06;88.95
11712;BME280;5912;51.034;6.984;2022-10-22T09:21:28;100297.81;;;17.11;90.38
11712;BME280;5912;51.034;6.984;2022-10-22T09:24:08;100305.56;;;17.17;89.35
11712;BME280;5912;51.034;6.984;2022-10-22T09:26:37;100310.66;;;17.24;88.61
11712;BME280;5912;51.034;6.984;2022-10-22T09:29:04;100311.69;;;17.23;89.04
11712;BME280;5912;51.034;6.984;2022-10-22T09:31:30;100306.66;;;17.21;89.21
11712;BME280;5912;51.034;6.984;2022-10-22T09:33:56;100305.88;;;17.21;87.46
11712;BME280;5912;51.034;6.984;2022-10-22T09:36:23;100298.88;;;17.10;88.07
11712;BME280;5912;51.034;6.984;2022-10-22T09:38:51;100309.31;;;17.21;89.78
11712;BME280;5912;51.034;6.984;2022-10-22T09:41:24;100312.81;;;17.27;90.64
11712;BME280;5912;51.034;6.984;2022-10-22T09:43:50;100313.84;;;17.21;90.49
11712;BME280;5912;51.034;6.984;2022-10-22T09:46:18;100316.28;;;17.32;89.78
11712;BME280;5912;51.034;6.984;2022-10-22T09:48:49;100321.56;;;17.27;89.06
11712;BME280;5912;51.034;6.984;2022-10-22T09:51:22;100320.47;;;17.23;89.76
11712;BME280;5912;51.034;6.984;2022-10-22T09:53:57;100317.22;;;17.11;89.96
11712;BME280;5912;51.034;6.984;2022-10-22T09:56:38;100320.91;;;17.10;90.64
11712;BME280;5912;51.034;6.984;2022-10-22T09:59:13;100313.69;;;17.06;88.70
11712;BME280;5912;51.034;6.984;2022-10-22T10:01:39;100331.28;;;17.12;88.00
11712;BME280;5912;51.034;6.984;2022-10-22T10:04:08;100339.44;;;17.05;88.50
11712;BME280;5912;51.034;6.984;2022-10-22T10:06:35;100335.47;;;17.03;88.06
11712;BME280;5912;51.034;6.984;2022-10-22T10:09:08;100341.22;;;16.95;88.90
11712;BME280;5912;51.034;6.984;2022-10-22T10:11:45;100344.59;;;16.85;87.58
11712;BME280;5912;51.034;6.984;2022-10-22T10:14:32;100346.69;;;16.83;86.77
11712;BME280;5912;51.034;6.984;2022-10-22T10:17:07;100348.50;;;16.78;87.38
11712;BME280;5912;51.034;6.984;2022-10-22T10:28:11;100360.72;;;16.79;89.06
11712;BME280;5912;51.034;6.984;2022-10-22T10:30:46;100337.22;;;16.44;90.08
11712;BME280;5912;51.034;6.984;2022-10-22T10:33:33;100369.31;;;16.64;90.99
11712;BME280;5912;51.034;6.984;2022-10-22T10:39:02;100311.25;;;16.24;90.85
11712;BME280;5912;51.034;6.984;2022-10-22T10:44:10;100374.06;;;16.62;90.24
11712;BME280;5912;51.034;6.984;2022-10-22T10:49:24;100375.44;;;16.65;88.00
11712;BME280;5912;51.034;6.984;2022-10-22T10:54:42;100381.31;;;16.72;86.97
11712;BME280;5912;51.034;6.984;2022-10-22T11:08:19;100392.88;;;16.82;85.29
11712;BME280;5912;51.034;6.984;2022-10-22T11:10:48;100391.56;;;16.85;86.11
11712;BME280;5912;51.034;6.984;2022-10-22T11:13:25;100402.25;;;16.90;85.20
11712;BME280;5912;51.034;6.984;2022-10-22T11:19:02;100389.03;;;16.95;83.22
11712;BME280;5912;51.034;6.984;2022-10-22T11:21:37;100393.88;;;17.03;83.67
11712;BME280;5912;51.034;6.984;2022-10-22T11:24:27;100394.50;;;17.10;81.48
11712;BME280;5912;51.034;6.984;2022-10-22T11:29:33;100387.66;;;17.19;81.55
11712;BME280;5912;51.034;6.984;2022-10-22T11:32:01;100390.56;;;17.17;80.45
11712;BME280;5912;51.034;6.984;2022-10-22T11:34:39;100398.78;;;17.16;79.42
11712;BME280;5912;51.034;6.984;2022-10-22T11:37:09;100403.56;;;17.14;79.90
11712;BME280;5912;51.034;6.984;2022-10-22T11:39:44;100396.09;;;17.11;79.00
11712;BME280;5912;51.034;6.984;2022-10-22T11:42:21;100402.41;;;17.05;80.43
11712;BME280;5912;51.034;6.984;2022-10-22T11:44:48;100397.78;;;16.95;80.94
11712;BME280;5912;51.034;6.984;2022-10-22T11:47:27;100390.81;;;16.89;81.04
11712;BME280;5912;51.034;6.984;2022-10-22T11:50:19;100392.94;;;16.87;80.82
11712;BME280;5912;51.034;6.984;2022-10-22T11:58:30;100392.44;;;16.69;80.67
11712;BME280;5912;51.034;6.984;2022-10-22T12:08:32;100383.53;;;16.80;81.93
11712;BME280;5912;51.034;6.984;2022-10-22T12:16:23;100382.59;;;17.17;80.44
11712;BME280;5912;51.034;6.984;2022-10-22T12:18:55;100376.31;;;17.28;79.32
11712;BME280;5912;51.034;6.984;2022-10-22T12:21:22;100382.63;;;17.49;79.26
11712;BME280;5912;51.034;6.984;2022-10-22T12:23:48;100387.09;;;17.75;79.14
11712;BME280;5912;51.034;6.984;2022-10-22T12:26:27;100385.88;;;17.98;76.81
11712;BME280;5912;51.034;6.984;2022-10-22T12:28:57;100365.22;;;18.10;76.94
11712;BME280;5912;51.034;6.984;2022-10-22T12:31:22;100379.16;;;18.37;76.22
11712;BME280;5912;51.034;6.984;2022-10-22T12:33:55;100384.31;;;18.53;74.65
11712;BME280;5912;51.034;6.984;2022-10-22T12:36:20;100348.06;;;18.42;73.34
11712;BME280;5912;51.034;6.984;2022-10-22T12:38:46;100383.31;;;18.74;73.47
11712;BME280;5912;51.034;6.984;2022-10-22T12:41:12;100384.94;;;18.90;73.69
11712;BME280;5912;51.034;6.984;2022-10-22T12:43:37;100382.59;;;18.99;69.25
11712;BME280;5912;51.034;6.984;2022-10-22T12:46:13;100375.94;;;19.11;70.99
11712;BME280;5912;51.034;6.984;2022-10-22T12:48:42;100366.88;;;19.23;70.28
11712;BME280;5912;51.034;6.984;2022-10-22T12:51:15;100369.56;;;19.43;69.88
11712;BME280;5912;51.034;6.984;2022-10-22T12:53:45;100364.19;;;19.68;68.22
11712;BME280;5912;51.034;6.984;2022-10-22T12:56:21;100349.81;;;19.74;68.85
11712;BME280;5912;51.034;6.984;2022-10-22T12:58:54;100352.41;;;19.94;67.87
11712;BME280;5912;51.034;6.984;2022-10-22T13:01:20;100343.56;;;20.13;68.62
11712;BME280;5912;51.034;6.984;2022-10-22T13:03:48;100354.47;;;20.27;67.57
11712;BME280;5912;51.034;6.984;2022-10-22T13:08:43;100333.38;;;20.25;65.52
11712;BME280;5912;51.034;6.984;2022-10-22T13:11:10;100336.88;;;20.21;66.18
11712;BME280;5912;51.034;6.984;2022-10-22T13:16:20;100342.84;;;19.88;65.60
11712;BME280;5912;51.034;6.984;2022-10-22T13:18:48;100335.38;;;19.80;66.08
11712;BME280;5912;51.034;6.984;2022-10-22T13:21:36;100348.09;;;20.13;65.46
11712;BME280;5912;51.034;6.984;2022-10-22T13:24:20;100352.91;;;20.21;63.66
11712;BME280;5912;51.034;6.984;2022-10-22T13:26:52;100368.06;;;20.30;63.18
11712;BME280;5912;51.034;6.984;2022-10-22T13:29:19;100357.69;;;20.19;62.35
11712;BME280;5912;51.034;6.984;2022-10-22T13:31:47;100354.44;;;20.32;62.69
11712;BME280;5912;51.034;6.984;2022-10-22T13:34:16;100352.03;;;20.84;60.59
11712;BME280;5912;51.034;6.984;2022-10-22T13:36:42;100344.63;;;21.15;58.31
11712;BME280;5912;51.034;6.984;2022-10-22T13:39:22;100368.06;;;21.28;57.46
11712;BME280;5912;51.034;6.984;2022-10-22T13:41:48;100361.56;;;21.00;58.08
11712;BME280;5912;51.034;6.984;2022-10-22T13:44:15;100369.31;;;21.02;55.80
11712;BME280;5912;51.034;6.984;2022-10-22T13:46:41;100363.34;;;21.15;56.75
11712;BME280;5912;51.034;6.984;2022-10-22T13:49:19;100360.22;;;21.36;56.54
11712;BME280;5912;51.034;6.984;2022-10-22T13:51:46;100370.56;;;21.48;56.21
11712;BME280;5912;51.034;6.984;2022-10-22T13:54:17;100357.31;;;21.33;55.86
11712;BME280;5912;51.034;6.984;2022-10-22T13:56:44;100356.88;;;21.21;56.52
11712;BME280;5912;51.034;6.984;2022-10-22T13:59:09;100356.16;;;21.10;57.27
11712;BME280;5912;51.034;6.984;2022-10-22T14:01:35;100311.28;;;20.64;58.08
11712;BME280;5912;51.034;6.984;2022-10-22T14:04:03;100359.56;;;20.77;57.84
11712;BME280;5912;51.034;6.984;2022-10-22T14:06:30;100353.19;;;20.68;58.96
11712;BME280;5912;51.034;6.984;2022-10-22T14:09:05;100357.91;;;20.86;59.35
11712;BME280;5912;51.034;6.984;2022-10-22T14:11:33;100363.97;;;21.02;58.09
11712;BME280;5912;51.034;6.984;2022-10-22T14:13:59;100364.78;;;20.92;57.66
11712;BME280;5912;51.034;6.984;2022-10-22T14:16:27;100357.56;;;21.03;58.82
11712;BME280;5912;51.034;6.984;2022-10-22T14:18:55;100356.13;;;21.15;57.33
11712;BME280;5912;51.034;6.984;2022-10-22T14:21:21;100352.91;;;21.18;57.06
11712;BME280;5912;51.034;6.984;2022-10-22T14:23:47;100354.34;;;20.96;56.26
11712;BME280;5912;51.034;6.984;2022-10-22T14:26:25;100350.53;;;20.63;57.34
11712;BME280;5912;51.034;6.984;2022-10-22T14:28:52;100299.59;;;19.91;58.46
11712;BME280;5912;51.034;6.984;2022-10-22T14:31:17;100357.22;;;19.92;59.97
11712;BME280;5912;51.034;6.984;2022-10-22T14:33:43;100351.94;;;19.62;61.47
11712;BME280;5912;51.034;6.984;2022-10-22T14:36:12;100347.72;;;19.31;63.35